Time;durP1;ratioP1;P1;durP2;ratioP2;P2;SDS_P1;SDS_P2;PMS_P1;PMS_P2;Temp;Humidity;BMP_temperature;BMP_pressure;BME280_temperature;BME280_humidity;BME280_pressure;Samples;Min_cycle;Max_cycle;Signal;HPM_P1;HPM_P2
2023/02/27 00:00:16;;;;;;;4.93;2.03;;;3.90;99.90;;;;;;5039702;28;20060;-88
2023/02/27 00:02:45;;;;;;;6.72;1.38;;;3.90;99.90;;;;;;5039950;28;20116;-90
2023/02/27 00:05:12;;;;;;;3.25;1.20;;;3.90;99.90;;;;;;5039410;28;20025;-90
2023/02/27 00:07:37;;;;;;;4.13;1.40;;;3.80;99.90;;;;;;5039478;28;20029;-88
2023/02/27 00:10:04;;;;;;;4.50;1.25;;;3.80;99.90;;;;;;5056136;28;20067;-89
2023/02/27 00:12:36;;;;;;;5.63;1.55;;;3.80;99.90;;;;;;5039913;28;20024;-88
2023/02/27 00:15:10;;;;;;;6.65;1.92;;;3.80;99.90;;;;;;5039533;28;20441;-92
2023/02/27 00:17:36;;;;;;;6.00;1.60;;;3.80;99.90;;;;;;5039725;28;20385;-88
2023/02/27 00:20:03;;;;;;;3.22;1.30;;;3.70;99.90;;;;;;5039655;28;20029;-91
2023/02/27 00:22:29;;;;;;;5.53;1.30;;;3.80;99.90;;;;;;5039816;28;20028;-88
2023/02/27 00:24:55;;;;;;;4.05;1.30;;;3.70;99.90;;;;;;5047234;28;20021;-87
2023/02/27 00:27:20;;;;;;;5.95;1.60;;;3.70;99.90;;;;;;5051107;28;20087;-88
2023/02/27 00:29:48;;;;;;;5.35;1.38;;;3.70;99.90;;;;;;5040533;28;20021;-88
2023/02/27 00:32:15;;;;;;;4.97;1.52;;;3.70;99.90;;;;;;5040517;28;20057;-89
2023/02/27 00:34:41;;;;;;;6.38;1.70;;;3.60;99.90;;;;;;5040182;28;20031;-88
2023/02/27 00:37:07;;;;;;;4.75;1.70;;;3.60;99.90;;;;;;5039991;28;20025;-91
2023/02/27 00:39:32;;;;;;;6.82;1.80;;;3.60;99.90;;;;;;5040454;28;20021;-88
2023/02/27 00:41:58;;;;;;;6.13;1.80;;;3.60;99.90;;;;;;5023948;28;20033;-87
2023/02/27 00:44:26;;;;;;;4.47;1.55;;;3.60;99.90;;;;;;5022944;28;20072;-88
2023/02/27 00:46:52;;;;;;;5.43;1.45;;;3.50;99.90;;;;;;5039197;28;20044;-88
2023/02/27 00:49:18;;;;;;;3.60;1.30;;;3.60;99.90;;;;;;5023271;28;20469;-88
2023/02/27 00:51:46;;;;;;;6.68;1.77;;;3.50;99.90;;;;;;5039604;28;20036;-88
2023/02/27 00:54:12;;;;;;;6.40;1.20;;;3.50;99.90;;;;;;5038615;28;20480;-91
2023/02/27 00:56:38;;;;;;;3.58;2.25;;;3.50;99.90;;;;;;5029023;28;20033;-87
2023/02/27 00:59:09;;;;;;;3.08;1.58;;;3.40;99.90;;;;;;5042027;28;20029;-88
2023/02/27 01:01:35;;;;;;;8.05;1.90;;;3.40;99.90;;;;;;5039863;28;20076;-89
2023/02/27 01:04:01;;;;;;;4.88;1.60;;;3.40;99.90;;;;;;5047644;28;20113;-88
2023/02/27 01:06:29;;;;;;;3.67;1.35;;;3.40;99.90;;;;;;5048892;28;20064;-89
2023/02/27 01:08:55;;;;;;;5.75;2.05;;;3.40;99.90;;;;;;5040930;28;20021;-89
2023/02/27 01:11:23;;;;;;;4.90;1.50;;;3.30;99.90;;;;;;5040257;28;20020;-89
2023/02/27 01:13:49;;;;;;;5.13;2.25;;;3.30;99.90;;;;;;5028415;28;20025;-88
2023/02/27 01:16:15;;;;;;;6.38;1.63;;;3.30;99.90;;;;;;5060489;28;20089;-89
2023/02/27 01:18:43;;;;;;;4.18;1.33;;;3.20;99.90;;;;;;5062006;28;20145;-88
2023/02/27 01:21:09;;;;;;;6.45;1.80;;;3.30;99.90;;;;;;5043562;28;20020;-92
2023/02/27 01:23:35;;;;;;;5.20;1.52;;;3.30;99.90;;;;;;5058609;28;20033;-90
2023/02/27 01:26:03;;;;;;;6.78;1.58;;;3.20;99.90;;;;;;5041755;28;20021;-88
2023/02/27 01:28:29;;;;;;;2.95;1.27;;;3.20;99.90;;;;;;5048102;28;20039;-89
2023/02/27 01:30:55;;;;;;;5.18;1.40;;;3.20;99.90;;;;;;5023852;28;20443;-88
2023/02/27 01:33:21;;;;;;;6.10;1.60;;;3.10;99.90;;;;;;5055327;28;20033;-88
2023/02/27 01:35:46;;;;;;;7.57;1.60;;;3.10;99.90;;;;;;5021992;28;20115;-88
2023/02/27 01:38:12;;;;;;;4.80;1.23;;;3.10;99.90;;;;;;5021171;28;20036;-89
2023/02/27 01:40:40;;;;;;;5.93;1.20;;;3.00;99.90;;;;;;5021381;28;20029;-88
2023/02/27 01:43:11;;;;;;;4.60;1.23;;;3.00;99.90;;;;;;5054585;28;20029;-87
2023/02/27 01:45:42;;;;;;;4.00;1.20;;;3.00;99.90;;;;;;5039053;28;20033;-89
2023/02/27 01:48:27;;;;;;;4.93;1.30;;;3.00;99.90;;;;;;5021230;28;20033;-88
2023/02/27 01:50:58;;;;;;;3.30;1.08;;;2.90;99.90;;;;;;5037761;28;20021;-88
2023/02/27 01:53:28;;;;;;;7.35;1.38;;;2.90;99.90;;;;;;5037243;28;20055;-88
2023/02/27 01:56:01;;;;;;;5.40;1.38;;;2.90;99.90;;;;;;5037396;28;20032;-88
2023/02/27 01:58:27;;;;;;;5.03;1.33;;;2.90;99.90;;;;;;5037492;28;20385;-86
2023/02/27 02:00:54;;;;;;;5.78;1.45;;;2.80;99.90;;;;;;5037675;28;20516;-88
2023/02/27 02:03:42;;;;;;;6.88;1.52;;;2.80;99.90;;;;;;5037617;28;20393;-88
2023/02/27 02:06:09;;;;;;;7.13;2.17;;;2.80;99.90;;;;;;5037490;28;20135;-88
2023/02/27 02:08:39;;;;;;;4.28;1.52;;;2.80;99.90;;;;;;5037110;28;20044;-90
2023/02/27 02:11:06;;;;;;;4.38;1.40;;;2.80;99.90;;;;;;5055684;28;20029;-88
2023/02/27 02:13:32;;;;;;;6.07;1.33;;;2.80;99.90;;;;;;5020518;28;20037;-89
2023/02/27 02:16:37;;;;;;;4.30;1.60;;;2.70;99.90;;;;;;5021252;28;20026;-89
2023/02/27 02:19:14;;;;;;;3.15;1.40;;;2.70;99.90;;;;;;4958367;28;20037;-90
2023/02/27 02:21:56;;;;;;;3.33;1.20;;;2.70;99.90;;;;;;4958588;28;20365;-88
2023/02/27 02:24:34;;;;;;;4.80;1.27;;;2.60;99.90;;;;;;5020410;28;20098;-90
2023/02/27 02:27:08;;;;;;;6.28;1.70;;;2.60;99.90;;;;;;5047889;28;20036;-87
2023/02/27 02:29:43;;;;;;;6.63;1.50;;;2.60;99.90;;;;;;5067911;28;20044;-91
2023/02/27 02:32:11;;;;;;;5.25;1.63;;;2.60;99.90;;;;;;5047858;28;20397;-87
2023/02/27 02:35:21;;;;;;;4.90;1.40;;;2.60;99.90;;;;;;5042575;28;20029;-89
2023/02/27 02:38:28;;;;;;;4.40;1.50;;;2.50;99.90;;;;;;5055267;28;20099;-89
2023/02/27 02:41:13;;;;;;;3.17;1.33;;;2.50;99.90;;;;;;4974409;28;20098;-88
2023/02/27 02:44:10;;;;;;;5.65;1.48;;;2.50;99.90;;;;;;5041271;28;20047;-88
2023/02/27 02:46:43;;;;;;;4.95;1.52;;;2.50;99.90;;;;;;5066207;28;20049;-87
2023/02/27 02:49:13;;;;;;;5.15;1.65;;;2.40;99.90;;;;;;5066045;28;20021;-89
2023/02/27 02:51:46;;;;;;;6.10;1.30;;;2.50;99.90;;;;;;5058255;28;20055;-90
2023/02/27 02:54:56;;;;;;;6.45;1.58;;;2.40;99.90;;;;;;5037260;28;20033;-89
2023/02/27 02:57:52;;;;;;;6.78;1.52;;;2.40;99.90;;;;;;5053619;28;20035;-89
2023/02/27 03:00:27;;;;;;;4.13;1.60;;;2.40;99.90;;;;;;5036000;28;20041;-89
2023/02/27 03:03:03;;;;;;;4.28;1.50;;;2.40;99.90;;;;;;5053597;28;20119;-88
2023/02/27 03:05:34;;;;;;;4.97;1.27;;;2.30;99.90;;;;;;5059189;28;20025;-88
2023/02/27 03:08:09;;;;;;;5.38;1.52;;;2.30;99.90;;;;;;5054517;28;20021;-87
2023/02/27 03:10:45;;;;;;;5.28;1.65;;;2.30;99.90;;;;;;5052613;28;20036;-87
2023/02/27 03:13:23;;;;;;;4.80;2.08;;;2.20;99.90;;;;;;5036938;28;20041;-88
2023/02/27 03:16:05;;;;;;;4.07;1.85;;;2.20;99.90;;;;;;5053413;28;20032;-88
2023/02/27 03:18:43;;;;;;;4.38;1.88;;;2.20;99.90;;;;;;5036577;28;20025;-87
2023/02/27 03:21:23;;;;;;;4.82;1.92;;;2.20;99.90;;;;;;5053162;28;20047;-88
2023/02/27 03:23:52;;;;;;;4.63;1.60;;;2.20;99.90;;;;;;5052417;28;20036;-88
2023/02/27 03:26:22;;;;;;;4.28;1.60;;;2.10;99.90;;;;;;5052653;28;20067;-88
2023/02/27 03:29:18;;;;;;;5.60;1.70;;;2.10;99.90;;;;;;5053127;28;20048;-88
2023/02/27 03:31:53;;;;;;;5.82;1.83;;;2.20;99.90;;;;;;5033953;28;20048;-87
2023/02/27 03:34:34;;;;;;;4.55;1.70;;;2.10;99.90;;;;;;5053114;28;20052;-88
2023/02/27 03:37:09;;;;;;;4.43;1.70;;;2.00;99.90;;;;;;5052422;28;20048;-86
2023/02/27 03:39:47;;;;;;;5.70;1.70;;;2.00;99.90;;;;;;5036257;28;20021;-87
2023/02/27 03:42:38;;;;;;;8.32;2.63;;;2.00;99.90;;;;;;5052885;28;20544;-86
2023/02/27 03:45:27;;;;;;;5.38;2.00;;;2.00;99.90;;;;;;5053875;28;20036;-87
2023/02/27 03:47:53;;;;;;;7.50;1.83;;;1.90;99.90;;;;;;5053848;28;20032;-89
2023/02/27 03:50:20;;;;;;;5.68;1.50;;;2.00;99.90;;;;;;5035971;28;20025;-87
2023/02/27 03:52:45;;;;;;;3.95;1.70;;;1.90;99.90;;;;;;5036540;28;20029;-88
2023/02/27 03:55:23;;;;;;;3.55;1.42;;;1.90;99.90;;;;;;5052063;28;20032;-88
2023/02/27 03:57:50;;;;;;;5.30;1.38;;;1.90;99.90;;;;;;5036183;28;20057;-87
2023/02/27 04:00:19;;;;;;;4.15;1.50;;;1.90;99.90;;;;;;5052684;28;20032;-87
2023/02/27 04:02:49;;;;;;;5.32;1.75;;;1.90;99.90;;;;;;5053569;28;20024;-88
2023/02/27 04:05:15;;;;;;;6.27;1.57;;;1.90;99.90;;;;;;5052590;28;20025;-88
2023/02/27 04:08:42;;;;;;;6.40;2.60;;;1.80;99.90;;;;;;5035507;28;20116;-88
2023/02/27 04:11:27;;;;;;;6.45;1.67;;;1.80;99.90;;;;;;4956591;28;20046;-87
2023/02/27 04:14:19;;;;;;;6.70;1.60;;;1.80;99.90;;;;;;5035849;28;20059;-87
2023/02/27 04:17:10;;;;;;;5.88;1.77;;;1.80;99.90;;;;;;5035101;28;20028;-89
2023/02/27 04:19:48;;;;;;;5.97;2.20;;;1.70;99.90;;;;;;5035710;28;20025;-88
2023/02/27 04:22:33;;;;;;;7.70;1.85;;;1.70;99.90;;;;;;5036634;28;20025;-88
2023/02/27 04:25:10;;;;;;;4.30;1.70;;;1.70;99.90;;;;;;5055967;28;20124;-87
2023/02/27 04:27:47;;;;;;;8.80;2.08;;;1.70;99.90;;;;;;5039717;28;20029;-89
2023/02/27 04:30:51;;;;;;;5.45;2.10;;;1.70;99.90;;;;;;5052968;28;20021;-91
2023/02/27 04:33:26;;;;;;;6.22;2.08;;;1.70;99.90;;;;;;5047917;28;20033;-87
2023/02/27 04:35:57;;;;;;;5.82;1.88;;;1.60;99.90;;;;;;5076099;28;20028;-87
2023/02/27 04:38:45;;;;;;;6.53;1.67;;;1.60;99.90;;;;;;5075365;28;20028;-87
2023/02/27 04:41:13;;;;;;;8.45;2.05;;;1.60;99.90;;;;;;5076106;28;20056;-88
2023/02/27 04:43:41;;;;;;;6.13;1.88;;;1.60;99.90;;;;;;5064559;28;20036;-87
2023/02/27 04:46:12;;;;;;;5.43;2.05;;;1.50;99.90;;;;;;5057224;28;20029;-87
2023/02/27 04:49:02;;;;;;;6.95;1.95;;;1.60;99.90;;;;;;5055775;28;20120;-87
2023/02/27 04:51:35;;;;;;;7.47;2.10;;;1.50;99.90;;;;;;5056868;28;20060;-88
2023/02/27 04:54:39;;;;;;;4.93;2.08;;;1.50;99.90;;;;;;5055455;28;20154;-88
2023/02/27 04:57:40;;;;;;;5.20;1.90;;;1.50;99.90;;;;;;5039262;28;20058;-85
2023/02/27 05:00:09;;;;;;;7.35;1.95;;;1.50;99.90;;;;;;5056732;28;20025;-90
2023/02/27 05:02:42;;;;;;;7.13;2.17;;;1.50;99.90;;;;;;5057484;28;20029;-88
2023/02/27 05:05:14;;;;;;;7.85;2.47;;;1.50;99.90;;;;;;5057541;28;20037;-88
2023/02/27 05:07:51;;;;;;;5.70;2.38;;;1.50;99.90;;;;;;5055747;28;20052;-88
2023/02/27 05:10:35;;;;;;;5.53;1.90;;;1.50;99.90;;;;;;5055741;28;20035;-87
2023/02/27 05:13:04;;;;;;;6.68;2.22;;;1.50;99.90;;;;;;5064345;28;20029;-88
2023/02/27 05:15:44;;;;;;;7.40;2.20;;;1.50;99.90;;;;;;5056506;28;20111;-89
2023/02/27 05:18:14;;;;;;;4.15;1.80;;;1.40;99.90;;;;;;5041136;28;20108;-88
2023/02/27 05:20:58;;;;;;;7.28;2.00;;;1.40;99.90;;;;;;5057995;28;20024;-89
2023/02/27 05:23:47;;;;;;;4.82;2.00;;;1.40;99.90;;;;;;5039743;28;20029;-89
2023/02/27 05:26:28;;;;;;;6.32;2.00;;;1.40;99.90;;;;;;5054976;28;20048;-88
2023/02/27 05:29:30;;;;;;;9.35;2.28;;;1.40;99.90;;;;;;5055471;28;20461;-88
2023/02/27 05:32:28;;;;;;;6.15;2.15;;;1.40;99.90;;;;;;5028364;28;20053;-88
2023/02/27 05:35:03;;;;;;;7.20;2.00;;;1.30;99.90;;;;;;5032418;28;20037;-89
2023/02/27 05:37:49;;;;;;;8.38;2.78;;;1.30;99.90;;;;;;5038667;28;20037;-86
2023/02/27 05:40:20;;;;;;;8.60;2.17;;;1.30;99.90;;;;;;5055041;28;20059;-86
2023/02/27 05:43:04;;;;;;;7.03;2.13;;;1.30;99.90;;;;;;5054707;28;20032;-89
2023/02/27 05:45:36;;;;;;;11.48;1.92;;;1.30;99.90;;;;;;5037726;28;20025;-93
2023/02/27 05:48:43;;;;;;;7.53;2.13;;;1.30;99.90;;;;;;5088519;27;1348568;-87
2023/02/27 05:51:12;;;;;;;6.95;2.08;;;1.30;99.90;;;;;;5112006;28;20049;-87
2023/02/27 05:53:45;;;;;;;13.25;2.53;;;1.30;99.90;;;;;;5111456;28;20085;-88
2023/02/27 05:56:13;;;;;;;7.22;2.38;;;1.30;99.90;;;;;;5110308;28;20077;-88
2023/02/27 05:58:48;;;;;;;7.05;1.90;;;1.30;99.90;;;;;;5109043;28;20118;-87
2023/02/27 06:01:14;;;;;;;6.18;2.47;;;1.20;99.90;;;;;;5110641;28;20083;-88
2023/02/27 06:03:40;;;;;;;5.70;2.10;;;1.20;99.90;;;;;;5075888;28;20120;-88
2023/02/27 06:06:11;;;;;;;7.30;2.45;;;1.30;99.90;;;;;;5110085;28;20016;-88
2023/02/27 06:08:37;;;;;;;6.68;2.30;;;1.20;99.90;;;;;;5111026;28;20032;-88
2023/02/27 06:11:03;;;;;;;6.10;2.15;;;1.30;99.90;;;;;;5112217;28;20020;-86
2023/02/27 06:13:28;;;;;;;9.35;2.40;;;1.20;99.90;;;;;;5077471;28;20024;-86
2023/02/27 06:15:54;;;;;;;5.93;2.17;;;1.30;99.90;;;;;;5112251;28;20032;-86
2023/02/27 06:18:20;;;;;;;6.35;1.90;;;1.30;99.90;;;;;;5077676;28;20043;-87
2023/02/27 06:20:50;;;;;;;7.53;2.35;;;1.20;99.90;;;;;;5112107;28;20057;-87
2023/02/27 06:23:16;;;;;;;10.40;2.85;;;1.20;99.90;;;;;;5112002;28;20073;-86
2023/02/27 06:25:43;;;;;;;5.18;1.73;;;1.30;99.90;;;;;;5111953;28;20065;-87
2023/02/27 06:28:09;;;;;;;8.88;2.47;;;1.30;99.90;;;;;;5110475;28;20020;-87
2023/02/27 06:30:35;;;;;;;4.95;2.08;;;1.30;99.90;;;;;;5113028;28;20067;-87
2023/02/27 06:33:01;;;;;;;5.13;2.13;;;1.30;99.90;;;;;;5111584;28;20015;-88
2023/02/27 06:35:28;;;;;;;4.68;1.98;;;1.30;99.90;;;;;;5114262;28;20028;-87
2023/02/27 06:37:55;;;;;;;8.07;2.47;;;1.30;99.90;;;;;;5111749;28;20028;-87
2023/02/27 06:40:21;;;;;;;9.43;3.15;;;1.30;99.90;;;;;;5093668;28;20028;-87
2023/02/27 06:42:46;;;;;;;14.63;3.42;;;1.30;99.90;;;;;;5093704;28;20050;-87
2023/02/27 06:45:14;;;;;;;9.63;2.78;;;1.30;99.90;;;;;;5093613;28;20038;-87
2023/02/27 06:47:40;;;;;;;6.13;2.25;;;1.40;99.90;;;;;;5093873;28;20078;-87
2023/02/27 06:50:10;;;;;;;8.10;2.28;;;1.40;99.90;;;;;;5110754;28;20069;-86
2023/02/27 06:52:37;;;;;;;4.90;1.90;;;1.30;99.90;;;;;;5111593;28;20028;-87
2023/02/27 06:57:08;;;;;;;8.43;2.22;;;1.40;99.90;;;;;;5087674;27;1384406;-87
2023/02/27 06:59:34;;;;;;;7.35;3.00;;;1.40;99.90;;;;;;5095766;28;20051;-88
2023/02/27 07:02:00;;;;;;;6.53;2.22;;;1.40;99.90;;;;;;5078702;28;20073;-86
2023/02/27 07:04:26;;;;;;;9.13;1.90;;;1.40;99.90;;;;;;5093497;28;20119;-86
2023/02/27 07:06:52;;;;;;;7.38;2.03;;;1.40;99.90;;;;;;5060077;28;20487;-86
2023/02/27 07:09:17;;;;;;;7.10;2.45;;;1.40;99.90;;;;;;5063873;28;20062;-85
2023/02/27 07:11:46;;;;;;;9.82;2.15;;;1.40;99.90;;;;;;5079217;28;20051;-86
2023/02/27 07:14:14;;;;;;;6.15;2.08;;;1.40;99.90;;;;;;5060094;28;20031;-86
2023/02/27 07:16:39;;;;;;;10.85;2.33;;;1.40;99.90;;;;;;5093578;28;20031;-84
2023/02/27 07:19:05;;;;;;;7.43;1.90;;;1.50;99.90;;;;;;5077831;28;20028;-86
2023/02/27 07:21:31;;;;;;;5.28;2.03;;;1.50;99.90;;;;;;5078338;28;20031;-85
2023/02/27 07:23:56;;;;;;;7.10;2.65;;;1.50;99.90;;;;;;5059492;28;20073;-86
2023/02/27 07:26:22;;;;;;;9.95;2.22;;;1.50;99.90;;;;;;5074811;28;20031;-84
2023/02/27 07:28:48;;;;;;;7.43;2.30;;;1.50;99.90;;;;;;5057780;28;20070;-87
2023/02/27 07:31:13;;;;;;;6.22;2.00;;;1.50;99.90;;;;;;5060924;28;20058;-86
2023/02/27 07:33:39;;;;;;;5.53;2.05;;;1.50;99.90;;;;;;5111359;28;20042;-86
2023/02/27 07:36:05;;;;;;;5.68;2.10;;;1.50;99.90;;;;;;5071418;28;20053;-87
2023/02/27 07:38:31;;;;;;;6.90;3.28;;;1.60;99.90;;;;;;5072658;28;20024;-85
2023/02/27 07:40:57;;;;;;;9.43;2.17;;;1.60;99.90;;;;;;5086197;28;20031;-89
2023/02/27 07:43:24;;;;;;;7.18;2.10;;;1.70;99.90;;;;;;5096387;28;20051;-87
2023/02/27 07:45:50;;;;;;;6.47;2.70;;;1.70;99.90;;;;;;5107958;28;20092;-88
2023/02/27 07:48:17;;;;;;;6.40;2.22;;;1.70;99.90;;;;;;5116426;28;20019;-87
2023/02/27 07:50:43;;;;;;;8.15;2.47;;;1.70;99.90;;;;;;5105446;28;20031;-89
2023/02/27 07:53:08;;;;;;;6.93;2.42;;;1.70;99.90;;;;;;5085927;28;20496;-87
2023/02/27 07:55:34;;;;;;;6.30;2.25;;;1.70;99.90;;;;;;5104944;28;20066;-85
2023/02/27 07:58:00;;;;;;;6.85;2.50;;;1.80;99.90;;;;;;5094059;28;20121;-86
2023/02/27 08:00:26;;;;;;;9.25;2.22;;;1.80;99.90;;;;;;5094312;28;20026;-86
2023/02/27 08:02:51;;;;;;;7.43;2.65;;;1.90;99.90;;;;;;5080641;28;20029;-87
2023/02/27 08:05:17;;;;;;;5.20;2.35;;;1.90;99.90;;;;;;5056824;28;20055;-88
2023/02/27 08:07:43;;;;;;;5.40;2.20;;;1.90;99.90;;;;;;5059096;28;20076;-87
2023/02/27 08:10:09;;;;;;;8.95;2.42;;;2.00;99.90;;;;;;5041889;28;20028;-87
2023/02/27 08:12:35;;;;;;;11.15;2.58;;;2.00;99.90;;;;;;5058817;28;20483;-89
2023/02/27 08:15:01;;;;;;;5.18;2.60;;;2.00;99.90;;;;;;5041788;28;20028;-87
2023/02/27 08:17:26;;;;;;;8.55;2.72;;;2.10;99.90;;;;;;5084816;28;20027;-88
2023/02/27 08:19:52;;;;;;;6.68;2.42;;;2.10;99.90;;;;;;5064062;28;20027;-87
2023/02/27 08:22:18;;;;;;;6.55;2.25;;;2.20;99.90;;;;;;5076935;28;20056;-93
2023/02/27 08:24:44;;;;;;;9.00;2.72;;;2.20;99.90;;;;;;5099414;28;20024;-87
2023/02/27 08:27:09;;;;;;;7.50;2.45;;;2.30;99.90;;;;;;5077388;28;20043;-87
2023/02/27 08:29:35;;;;;;;7.55;2.00;;;2.30;99.90;;;;;;5076828;28;20391;-87
2023/02/27 08:32:01;;;;;;;9.15;2.17;;;2.30;99.90;;;;;;5064383;28;20089;-90
2023/02/27 08:34:30;;;;;;;5.25;1.95;;;2.40;99.90;;;;;;5057296;28;20033;-87
2023/02/27 08:36:56;;;;;;;5.90;2.33;;;2.50;99.90;;;;;;5080239;28;20028;-88
2023/02/27 08:39:24;;;;;;;7.25;2.20;;;2.50;99.90;;;;;;5075608;28;20877;-87
2023/02/27 08:41:53;;;;;;;4.03;1.83;;;2.60;99.90;;;;;;5080712;28;20038;-88
2023/02/27 08:44:19;;;;;;;9.10;1.70;;;2.60;99.90;;;;;;5097469;28;20491;-90
2023/02/27 08:49:14;;;;;;;6.72;1.83;;;2.70;99.90;;;;;;5089551;27;20450;-86
2023/02/27 08:51:39;;;;;;;6.10;2.05;;;2.80;99.90;;;;;;5088067;28;20044;-87
2023/02/27 08:54:05;;;;;;;7.05;1.95;;;2.80;99.90;;;;;;5071951;28;20391;-86
2023/02/27 08:56:33;;;;;;;5.18;1.70;;;2.90;99.90;;;;;;5072761;28;20028;-86
2023/02/27 08:58:59;;;;;;;7.88;1.80;;;2.90;99.90;;;;;;5088968;28;20089;-87
2023/02/27 09:01:27;;;;;;;5.03;2.00;;;3.00;99.90;;;;;;5055343;28;20949;-86
2023/02/27 09:03:55;;;;;;;7.95;2.00;;;3.00;99.90;;;;;;5089902;28;20028;-87
2023/02/27 09:06:20;;;;;;;4.32;1.88;;;3.10;99.90;;;;;;5073436;28;20020;-87
2023/02/27 09:08:46;;;;;;;4.50;1.75;;;3.20;99.90;;;;;;5074318;28;20037;-87
2023/02/27 09:11:12;;;;;;;7.40;1.83;;;3.20;99.90;;;;;;5073080;28;20055;-88
2023/02/27 09:13:37;;;;;;;5.68;2.03;;;3.20;99.90;;;;;;5073538;28;20036;-86
2023/02/27 09:16:03;;;;;;;6.88;2.00;;;3.30;99.90;;;;;;5073007;28;20550;-85
2023/02/27 09:18:29;;;;;;;5.82;1.83;;;3.30;99.90;;;;;;5088323;28;20036;-85
2023/02/27 09:20:55;;;;;;;7.45;1.73;;;3.40;99.90;;;;;;5088802;28;20101;-86
2023/02/27 09:23:21;;;;;;;6.40;2.08;;;3.40;99.90;;;;;;5088928;28;20149;-88
2023/02/27 09:25:47;;;;;;;7.55;2.53;;;3.50;99.90;;;;;;5090334;28;20024;-89
2023/02/27 09:28:13;;;;;;;7.72;3.08;;;3.60;99.90;;;;;;5095861;28;20024;-87
2023/02/27 09:30:38;;;;;;;3.92;1.38;;;3.60;99.90;;;;;;5055153;28;20504;-89
2023/02/27 09:33:04;;;;;;;5.57;1.50;;;3.70;99.90;;;;;;5074297;28;20499;-86
2023/02/27 09:35:36;;;;;;;4.35;1.35;;;3.80;99.90;;;;;;5093607;28;20036;-88
2023/02/27 09:38:02;;;;;;;5.82;1.90;;;3.80;99.90;;;;;;5089336;28;20031;-86
2023/02/27 09:40:31;;;;;;;3.90;1.67;;;4.00;99.90;;;;;;5088334;28;20281;-87
2023/02/27 09:43:01;;;;;;;4.10;1.50;;;4.00;99.90;;;;;;5096374;28;20066;-93
2023/02/27 09:45:30;;;;;;;4.47;1.60;;;4.10;99.90;;;;;;5091995;28;20368;-91
2023/02/27 09:48:07;;;;;;;6.05;1.40;;;4.20;99.90;;;;;;5090093;28;20048;-87
2023/02/27 09:50:37;;;;;;;7.03;1.50;;;4.30;99.90;;;;;;5086683;28;20028;-89
2023/02/27 09:53:05;;;;;;;9.23;3.03;;;4.40;99.90;;;;;;5087811;28;20502;-86
2023/02/27 09:55:37;;;;;;;5.20;1.58;;;4.40;99.90;;;;;;5087180;28;20031;-92
2023/02/27 09:58:19;;;;;;;4.18;1.27;;;4.50;99.90;;;;;;5097510;28;20032;-87
2023/02/27 10:00:55;;;;;;;5.40;1.33;;;4.60;99.90;;;;;;5085468;28;20028;-85
2023/02/27 10:03:42;;;;;;;6.10;1.63;;;4.70;99.90;;;;;;5082410;28;20021;-85
2023/02/27 10:06:20;;;;;;;6.90;1.45;;;4.90;99.90;;;;;;5072818;28;20036;-88
2023/02/27 10:09:07;;;;;;;5.93;1.98;;;5.00;99.90;;;;;;5076926;28;20024;-88
2023/02/27 10:11:45;;;;;;;2.70;1.00;;;5.00;99.90;;;;;;5073190;28;20033;-87
2023/02/27 10:14:23;;;;;;;4.55;1.20;;;5.20;99.90;;;;;;5075209;28;20112;-86
2023/02/27 10:16:51;;;;;;;3.92;1.20;;;5.30;99.90;;;;;;5073383;28;20028;-85
2023/02/27 10:19:33;;;;;;;3.63;1.42;;;5.40;99.90;;;;;;5073230;28;20047;-87
2023/02/27 10:22:03;;;;;;;5.13;1.25;;;5.40;99.90;;;;;;5073229;28;20025;-86
2023/02/27 10:25:02;;;;;;;5.28;1.10;;;5.50;99.90;;;;;;5073498;28;20428;-86
2023/02/27 10:27:30;;;;;;;4.65;1.33;;;5.70;99.90;;;;;;5071250;28;20484;-88
2023/02/27 10:30:30;;;;;;;5.00;1.48;;;5.80;99.90;;;;;;5072782;28;20369;-88
2023/02/27 10:33:25;;;;;;;3.60;1.70;;;5.90;99.90;;;;;;5071776;28;20036;-86
2023/02/27 10:35:52;;;;;;;5.53;1.50;;;6.00;99.90;;;;;;5070310;28;20027;-86
2023/02/27 10:38:38;;;;;;;4.22;1.45;;;6.10;99.90;;;;;;5054159;28;20363;-86
2023/02/27 10:41:08;;;;;;;6.18;1.08;;;6.20;99.90;;;;;;5069595;28;20567;-88
2023/02/27 10:43:34;;;;;;;6.73;1.53;;;6.30;99.90;;;;;;5073019;28;20402;-88
2023/02/27 10:46:01;;;;;;;4.22;1.30;;;6.40;99.90;;;;;;5056520;28;20027;-87
2023/02/27 10:48:27;;;;;;;5.60;1.27;;;6.50;99.90;;;;;;5056277;28;20131;-87
2023/02/27 10:51:24;;;;;;;6.45;1.38;;;6.60;99.90;;;;;;5054303;28;20609;-87
2023/02/27 10:53:54;;;;;;;3.22;1.30;;;6.70;99.90;;;;;;5079349;28;20081;-92
2023/02/27 10:56:25;;;;;;;3.47;1.13;;;6.90;99.90;;;;;;5096154;28;20024;-89
2023/02/27 10:59:21;;;;;;;;;;;7.00;99.90;;;;;;5095359;28;20271;-90
2023/02/27 11:02:00;;;;;;;4.82;1.20;;;7.10;99.90;;;;;;5080915;28;19912;-89
2023/02/27 11:04:53;;;;;;;4.80;1.20;;;7.20;99.90;;;;;;5116860;28;20028;-86
2023/02/27 11:07:32;;;;;;;4.07;1.10;;;7.30;99.90;;;;;;5072290;28;20060;-86
2023/02/27 11:10:09;;;;;;;5.30;1.30;;;7.50;99.90;;;;;;5094815;28;20115;-88
2023/02/27 11:12:35;;;;;;;4.68;1.08;;;7.60;99.90;;;;;;5093706;28;20376;-85
2023/02/27 11:15:15;;;;;;;7.70;1.70;;;7.70;99.90;;;;;;5077287;28;20066;-86
2023/02/27 11:17:42;;;;;;;3.97;1.17;;;7.90;99.90;;;;;;5093927;28;20028;-88
2023/02/27 11:20:34;;;;;;;2.50;1.17;;;8.00;99.90;;;;;;5077426;28;20042;-86
2023/02/27 11:23:13;;;;;;;3.70;1.08;;;8.20;99.90;;;;;;5086509;28;20055;-86
2023/02/27 11:25:39;;;;;;;2.25;0.70;;;8.20;99.10;;;;;;5094568;28;20062;-85
2023/02/27 11:28:21;;;;;;;2.47;0.77;;;8.30;98.30;;;;;;5094402;28;20064;-86
2023/02/27 11:31:07;;;;;;;2.47;0.77;;;8.40;97.80;;;;;;5093857;28;20069;-85
2023/02/27 11:33:40;;;;;;;2.78;0.75;;;8.50;97.00;;;;;;5094617;28;20030;-86
2023/02/27 11:36:06;;;;;;;2.15;0.63;;;8.50;95.60;;;;;;5095608;28;20344;-85
2023/02/27 11:38:33;;;;;;;3.05;0.70;;;8.60;94.90;;;;;;5093740;28;20028;-86
2023/02/27 11:41:03;;;;;;;2.42;0.80;;;8.60;94.90;;;;;;5093472;28;20031;-84
2023/02/27 11:43:32;;;;;;;3.28;0.95;;;8.70;94.40;;;;;;5093681;28;20144;-86
2023/02/27 11:46:01;;;;;;;4.88;1.10;;;8.80;94.10;;;;;;5094237;28;20024;-85
2023/02/27 11:48:34;;;;;;;2.63;0.70;;;8.90;94.20;;;;;;5094324;28;20052;-87
2023/02/27 11:51:21;;;;;;;1.73;0.60;;;9.00;94.10;;;;;;5093830;28;20038;-87
2023/02/27 11:54:08;;;;;;;2.70;0.82;;;9.10;93.00;;;;;;5094460;28;20020;-87
2023/02/27 11:56:40;;;;;;;0.88;0.50;;;9.20;91.90;;;;;;5093454;28;20024;-85
2023/02/27 11:59:18;;;;;;;2.78;0.55;;;9.30;91.70;;;;;;5093618;28;20036;-86
2023/02/27 12:01:53;;;;;;;2.50;0.90;;;9.40;92.10;;;;;;5093495;28;20028;-87
2023/02/27 12:04:50;;;;;;;6.53;1.67;;;9.50;91.20;;;;;;5093354;28;20078;-88
2023/02/27 12:07:19;;;;;;;3.78;0.82;;;9.60;90.60;;;;;;5093970;28;20098;-87
2023/02/27 12:10:05;;;;;;;4.20;1.45;;;9.60;89.20;;;;;;5093530;28;20032;-87
2023/02/27 12:12:49;;;;;;;4.63;1.10;;;9.70;85.80;;;;;;5093502;28;20020;-87
2023/02/27 12:15:46;;;;;;;3.42;1.20;;;9.70;88.10;;;;;;5093589;28;20035;-87
2023/02/27 12:18:20;;;;;;;3.60;1.00;;;9.80;86.70;;;;;;5077258;28;20032;-88
2023/02/27 12:20:51;;;;;;;2.85;1.00;;;9.90;86.20;;;;;;5093506;28;20471;-87
2023/02/27 12:23:43;;;;;;;3.92;1.20;;;10.00;83.60;;;;;;5092939;28;20072;-86
2023/02/27 12:26:21;;;;;;;3.55;0.90;;;10.00;85.10;;;;;;5093566;28;20452;-85
2023/02/27 12:28:52;;;;;;;3.95;0.93;;;10.10;83.60;;;;;;5092809;28;20024;-86
2023/02/27 12:31:31;;;;;;;2.80;0.90;;;10.20;84.20;;;;;;5094705;28;20024;-90
2023/02/27 12:34:18;;;;;;;3.65;0.90;;;10.20;82.80;;;;;;5093472;28;20028;-88
2023/02/27 12:36:44;;;;;;;3.88;1.13;;;10.20;82.30;;;;;;5093084;28;20028;-88
2023/02/27 12:39:19;;;;;;;2.83;1.00;;;10.30;81.60;;;;;;5093274;28;20024;-87
2023/02/27 12:42:14;;;;;;;3.47;1.08;;;10.20;78.90;;;;;;5094325;28;20036;-87
2023/02/27 12:44:49;;;;;;;1.20;0.65;;;10.20;80.10;;;;;;5093068;28;20035;-87
2023/02/27 12:47:21;;;;;;;3.53;0.73;;;10.20;79.80;;;;;;5092767;28;20085;-86
2023/02/27 12:50:05;;;;;;;2.53;0.70;;;10.20;79.40;;;;;;5092471;28;20044;-87
2023/02/27 12:53:12;;;;;;;2.72;0.98;;;10.20;79.60;;;;;;5093252;28;20076;-87
2023/02/27 12:55:53;;;;;;;2.47;0.70;;;10.20;79.60;;;;;;5091582;28;20024;-87
2023/02/27 12:58:54;;;;;;;2.60;0.80;;;10.20;78.60;;;;;;5093097;28;20059;-86
2023/02/27 13:01:37;;;;;;;4.00;1.33;;;10.30;78.00;;;;;;5093006;28;20074;-87
2023/02/27 13:04:17;;;;;;;3.65;1.17;;;10.30;76.90;;;;;;5092587;28;20024;-86
2023/02/27 13:06:43;;;;;;;4.68;1.42;;;10.30;75.80;;;;;;5093863;28;20047;-87
2023/02/27 13:09:27;;;;;;;2.28;1.00;;;10.40;76.40;;;;;;5092543;28;20064;-87
2023/02/27 13:12:17;;;;;;;2.83;0.80;;;10.40;76.50;;;;;;5092880;28;20032;-87
2023/02/27 13:14:48;;;;;;;4.13;1.08;;;10.40;76.30;;;;;;5092649;28;20028;-86
2023/02/27 13:17:30;;;;;;;3.33;1.05;;;10.30;75.50;;;;;;5092368;28;20024;-86
2023/02/27 13:19:59;;;;;;;4.00;1.10;;;10.30;76.00;;;;;;5094980;28;20024;-85
2023/02/27 13:22:50;;;;;;;5.93;2.55;;;10.30;76.40;;;;;;5092261;28;20028;-86
2023/02/27 13:25:17;;;;;;;3.78;1.10;;;10.30;75.30;;;;;;5092336;28;20201;-86
2023/02/27 13:27:54;;;;;;;3.35;0.93;;;10.30;75.80;;;;;;5075081;28;20047;-85
2023/02/27 13:30:37;;;;;;;3.65;1.10;;;10.30;75.40;;;;;;5089282;28;20047;-86
2023/02/27 13:33:36;;;;;;;3.20;1.10;;;10.30;76.10;;;;;;5080423;28;20016;-86